sensor_id;sensor_type;location;lat;lon;timestamp;P1;durP1;ratioP1;P2;durP2;ratioP2
54589;SDS011;40485;53.172;5.416;2022-10-17T00:00:50;11.02;;;2.85;;
54589;SDS011;40485;53.172;5.416;2022-10-17T00:03:16;11.85;;;3.20;;
54589;SDS011;40485;53.172;5.416;2022-10-17T00:05:43;10.40;;;2.83;;
54589;SDS011;40485;53.172;5.416;2022-10-17T00:08:11;8.73;;;2.95;;
54589;SDS011;40485;53.172;5.416;2022-10-17T00:10:38;7.60;;;2.95;;
54589;SDS011;40485;53.172;5.416;2022-10-17T00:13:04;10.80;;;2.42;;
54589;SDS011;40485;53.172;5.416;2022-10-17T00:15:30;13.65;;;2.70;;
54589;SDS011;40485;53.172;5.416;2022-10-17T00:17:57;9.95;;;2.75;;
54589;SDS011;40485;53.172;5.416;2022-10-17T00:20:23;10.85;;;2.70;;
54589;SDS011;40485;53.172;5.416;2022-10-17T00:22:49;5.82;;;2.25;;
54589;SDS011;40485;53.172;5.416;2022-10-17T00:25:15;11.23;;;2.80;;
54589;SDS011;40485;53.172;5.416;2022-10-17T00:27:41;8.90;;;2.80;;
54589;SDS011;40485;53.172;5.416;2022-10-17T00:30:08;10.40;;;3.15;;
54589;SDS011;40485;53.172;5.416;2022-10-17T00:32:36;9.15;;;2.85;;
54589;SDS011;40485;53.172;5.416;2022-10-17T00:35:02;8.27;;;2.97;;
54589;SDS011;40485;53.172;5.416;2022-10-17T00:37:29;9.50;;;2.67;;
54589;SDS011;40485;53.172;5.416;2022-10-17T00:39:55;11.40;;;2.40;;
54589;SDS011;40485;53.172;5.416;2022-10-17T00:42:21;11.63;;;2.95;;
54589;SDS011;40485;53.172;5.416;2022-10-17T00:47:15;6.28;;;2.53;;
54589;SDS011;40485;53.172;5.416;2022-10-17T00:49:43;12.27;;;2.88;;
54589;SDS011;40485;53.172;5.416;2022-10-17T00:52:17;12.15;;;2.55;;
54589;SDS011;40485;53.172;5.416;2022-10-17T00:54:50;7.53;;;2.35;;
54589;SDS011;40485;53.172;5.416;2022-10-17T00:57:22;7.30;;;2.42;;
54589;SDS011;40485;53.172;5.416;2022-10-17T00:59:50;8.07;;;2.50;;
54589;SDS011;40485;53.172;5.416;2022-10-17T01:02:19;10.77;;;2.80;;
54589;SDS011;40485;53.172;5.416;2022-10-17T01:04:47;9.75;;;2.85;;
54589;SDS011;40485;53.172;5.416;2022-10-17T01:07:14;9.10;;;3.00;;
54589;SDS011;40485;53.172;5.416;2022-10-17T01:09:40;6.25;;;2.53;;
54589;SDS011;40485;53.172;5.416;2022-10-17T01:12:19;9.55;;;2.90;;
54589;SDS011;40485;53.172;5.416;2022-10-17T01:22:42;7.55;;;2.50;;
54589;SDS011;40485;53.172;5.416;2022-10-17T01:27:59;16.17;;;3.08;;
54589;SDS011;40485;53.172;5.416;2022-10-17T01:33:40;7.45;;;3.35;;
54589;SDS011;40485;53.172;5.416;2022-10-17T01:36:30;9.80;;;2.72;;
54589;SDS011;40485;53.172;5.416;2022-10-17T01:39:11;6.65;;;3.17;;
54589;SDS011;40485;53.172;5.416;2022-10-17T01:41:57;13.40;;;3.78;;
54589;SDS011;40485;53.172;5.416;2022-10-17T01:44:45;8.15;;;3.42;;
54589;SDS011;40485;53.172;5.416;2022-10-17T01:47:14;12.13;;;3.58;;
54589;SDS011;40485;53.172;5.416;2022-10-17T01:49:44;5.95;;;3.42;;
54589;SDS011;40485;53.172;5.416;2022-10-17T01:52:14;10.10;;;3.70;;
54589;SDS011;40485;53.172;5.416;2022-10-17T01:55:08;9.75;;;4.00;;
54589;SDS011;40485;53.172;5.416;2022-10-17T02:00:30;8.88;;;3.40;;
54589;SDS011;40485;53.172;5.416;2022-10-17T02:02:59;9.73;;;3.75;;
54589;SDS011;40485;53.172;5.416;2022-10-17T02:05:30;9.68;;;4.30;;
54589;SDS011;40485;53.172;5.416;2022-10-17T02:07:57;8.00;;;3.30;;
54589;SDS011;40485;53.172;5.416;2022-10-17T02:10:30;10.68;;;4.45;;
54589;SDS011;40485;53.172;5.416;2022-10-17T02:13:11;8.45;;;3.75;;
54589;SDS011;40485;53.172;5.416;2022-10-17T02:24:29;9.68;;;4.50;;
54589;SDS011;40485;53.172;5.416;2022-10-17T02:29:48;12.43;;;4.88;;
54589;SDS011;40485;53.172;5.416;2022-10-17T02:35:34;10.07;;;5.57;;
54589;SDS011;40485;53.172;5.416;2022-10-17T02:38:04;11.02;;;5.80;;
54589;SDS011;40485;53.172;5.416;2022-10-17T02:40:32;7.93;;;4.97;;
54589;SDS011;40485;53.172;5.416;2022-10-17T02:42:59;13.07;;;5.40;;
54589;SDS011;40485;53.172;5.416;2022-10-17T02:45:25;12.18;;;5.95;;
54589;SDS011;40485;53.172;5.416;2022-10-17T02:48:01;9.85;;;5.72;;
54589;SDS011;40485;53.172;5.416;2022-10-17T02:50:46;12.07;;;5.72;;
54589;SDS011;40485;53.172;5.416;2022-10-17T02:53:31;11.63;;;6.45;;
54589;SDS011;40485;53.172;5.416;2022-10-17T02:56:06;8.07;;;5.78;;
54589;SDS011;40485;53.172;5.416;2022-10-17T02:58:40;12.05;;;6.22;;
54589;SDS011;40485;53.172;5.416;2022-10-17T03:01:09;14.13;;;5.60;;
54589;SDS011;40485;53.172;5.416;2022-10-17T03:03:35;12.48;;;6.03;;
54589;SDS011;40485;53.172;5.416;2022-10-17T03:06:01;9.23;;;6.20;;
54589;SDS011;40485;53.172;5.416;2022-10-17T03:08:27;11.23;;;6.13;;
54589;SDS011;40485;53.172;5.416;2022-10-17T03:10:52;12.38;;;6.60;;
54589;SDS011;40485;53.172;5.416;2022-10-17T03:13:18;9.35;;;6.57;;
54589;SDS011;40485;53.172;5.416;2022-10-17T03:15:44;9.77;;;7.45;;
54589;SDS011;40485;53.172;5.416;2022-10-17T03:18:10;10.50;;;8.20;;
54589;SDS011;40485;53.172;5.416;2022-10-17T03:20:35;13.63;;;8.73;;
54589;SDS011;40485;53.172;5.416;2022-10-17T03:23:01;17.92;;;9.85;;
54589;SDS011;40485;53.172;5.416;2022-10-17T03:25:27;12.98;;;9.60;;
54589;SDS011;40485;53.172;5.416;2022-10-17T03:27:52;14.43;;;10.63;;
54589;SDS011;40485;53.172;5.416;2022-10-17T03:30:18;17.00;;;12.23;;
54589;SDS011;40485;53.172;5.416;2022-10-17T03:32:44;19.77;;;13.43;;
54589;SDS011;40485;53.172;5.416;2022-10-17T03:35:10;21.35;;;12.77;;
54589;SDS011;40485;53.172;5.416;2022-10-17T03:37:36;21.05;;;14.25;;
54589;SDS011;40485;53.172;5.416;2022-10-17T03:40:01;20.77;;;13.45;;
54589;SDS011;40485;53.172;5.416;2022-10-17T03:42:27;17.67;;;13.30;;
54589;SDS011;40485;53.172;5.416;2022-10-17T03:44:53;19.73;;;13.00;;
54589;SDS011;40485;53.172;5.416;2022-10-17T03:47:18;17.48;;;12.75;;
54589;SDS011;40485;53.172;5.416;2022-10-17T03:49:44;16.90;;;12.50;;
54589;SDS011;40485;53.172;5.416;2022-10-17T03:52:10;17.60;;;12.52;;
54589;SDS011;40485;53.172;5.416;2022-10-17T03:54:37;14.10;;;10.80;;
54589;SDS011;40485;53.172;5.416;2022-10-17T03:57:02;15.68;;;11.73;;
54589;SDS011;40485;53.172;5.416;2022-10-17T03:59:28;14.38;;;11.85;;
54589;SDS011;40485;53.172;5.416;2022-10-17T04:01:53;18.63;;;11.40;;
54589;SDS011;40485;53.172;5.416;2022-10-17T04:04:19;17.38;;;12.30;;
54589;SDS011;40485;53.172;5.416;2022-10-17T04:06:45;18.58;;;11.07;;
54589;SDS011;40485;53.172;5.416;2022-10-17T04:09:11;19.27;;;11.93;;
54589;SDS011;40485;53.172;5.416;2022-10-17T04:11:36;14.13;;;12.10;;
54589;SDS011;40485;53.172;5.416;2022-10-17T04:14:02;15.10;;;12.15;;
54589;SDS011;40485;53.172;5.416;2022-10-17T04:16:28;17.45;;;11.90;;
54589;SDS011;40485;53.172;5.416;2022-10-17T04:18:54;16.55;;;12.45;;
54589;SDS011;40485;53.172;5.416;2022-10-17T04:21:22;14.23;;;11.52;;
54589;SDS011;40485;53.172;5.416;2022-10-17T04:23:52;17.15;;;11.73;;
54589;SDS011;40485;53.172;5.416;2022-10-17T04:26:19;15.05;;;12.00;;
54589;SDS011;40485;53.172;5.416;2022-10-17T04:28:44;16.83;;;12.13;;
54589;SDS011;40485;53.172;5.416;2022-10-17T04:31:11;17.35;;;12.48;;
54589;SDS011;40485;53.172;5.416;2022-10-17T04:33:38;14.82;;;12.45;;
54589;SDS011;40485;53.172;5.416;2022-10-17T04:36:11;20.42;;;14.38;;
54589;SDS011;40485;53.172;5.416;2022-10-17T04:38:38;17.05;;;12.57;;
54589;SDS011;40485;53.172;5.416;2022-10-17T04:41:06;17.60;;;13.43;;
54589;SDS011;40485;53.172;5.416;2022-10-17T04:43:34;15.23;;;12.15;;
54589;SDS011;40485;53.172;5.416;2022-10-17T04:46:01;17.02;;;12.88;;
54589;SDS011;40485;53.172;5.416;2022-10-17T04:48:28;18.40;;;12.93;;
54589;SDS011;40485;53.172;5.416;2022-10-17T04:53:21;17.55;;;13.15;;
54589;SDS011;40485;53.172;5.416;2022-10-17T04:55:47;16.00;;;12.32;;
54589;SDS011;40485;53.172;5.416;2022-10-17T04:58:13;18.88;;;13.65;;
54589;SDS011;40485;53.172;5.416;2022-10-17T05:00:39;17.08;;;12.70;;
54589;SDS011;40485;53.172;5.416;2022-10-17T05:03:04;15.80;;;13.52;;
54589;SDS011;40485;53.172;5.416;2022-10-17T05:05:30;15.57;;;12.88;;
54589;SDS011;40485;53.172;5.416;2022-10-17T05:07:56;16.83;;;12.40;;
54589;SDS011;40485;53.172;5.416;2022-10-17T05:10:22;15.27;;;12.55;;
54589;SDS011;40485;53.172;5.416;2022-10-17T05:12:48;16.35;;;12.88;;
54589;SDS011;40485;53.172;5.416;2022-10-17T05:15:14;18.00;;;12.48;;
54589;SDS011;40485;53.172;5.416;2022-10-17T05:17:40;15.38;;;12.65;;
54589;SDS011;40485;53.172;5.416;2022-10-17T05:20:06;14.65;;;12.30;;
54589;SDS011;40485;53.172;5.416;2022-10-17T05:22:33;18.58;;;12.30;;
54589;SDS011;40485;53.172;5.416;2022-10-17T05:24:58;19.52;;;11.80;;
54589;SDS011;40485;53.172;5.416;2022-10-17T05:27:24;17.73;;;12.18;;
54589;SDS011;40485;53.172;5.416;2022-10-17T05:29:49;16.15;;;12.32;;
54589;SDS011;40485;53.172;5.416;2022-10-17T05:32:15;14.30;;;10.57;;
54589;SDS011;40485;53.172;5.416;2022-10-17T05:34:41;16.85;;;11.85;;
54589;SDS011;40485;53.172;5.416;2022-10-17T05:37:06;19.15;;;11.52;;
54589;SDS011;40485;53.172;5.416;2022-10-17T05:39:32;12.40;;;9.23;;
54589;SDS011;40485;53.172;5.416;2022-10-17T05:41:57;13.02;;;10.20;;
54589;SDS011;40485;53.172;5.416;2022-10-17T05:44:23;16.20;;;11.23;;
54589;SDS011;40485;53.172;5.416;2022-10-17T05:46:48;13.93;;;11.38;;
54589;SDS011;40485;53.172;5.416;2022-10-17T05:49:14;14.82;;;10.15;;
54589;SDS011;40485;53.172;5.416;2022-10-17T05:51:40;15.98;;;10.15;;
54589;SDS011;40485;53.172;5.416;2022-10-17T05:54:06;12.48;;;8.20;;
54589;SDS011;40485;53.172;5.416;2022-10-17T05:56:32;11.93;;;9.68;;
54589;SDS011;40485;53.172;5.416;2022-10-17T05:58:58;14.13;;;7.88;;
54589;SDS011;40485;53.172;5.416;2022-10-17T06:01:24;14.40;;;9.13;;
54589;SDS011;40485;53.172;5.416;2022-10-17T06:03:50;15.55;;;10.10;;
54589;SDS011;40485;53.172;5.416;2022-10-17T06:06:16;13.82;;;8.73;;
54589;SDS011;40485;53.172;5.416;2022-10-17T06:08:43;12.52;;;8.50;;
54589;SDS011;40485;53.172;5.416;2022-10-17T06:11:09;11.38;;;6.90;;
54589;SDS011;40485;53.172;5.416;2022-10-17T06:13:35;12.65;;;8.95;;
54589;SDS011;40485;53.172;5.416;2022-10-17T06:16:01;13.60;;;8.85;;
54589;SDS011;40485;53.172;5.416;2022-10-17T06:18:27;14.65;;;8.65;;
54589;SDS011;40485;53.172;5.416;2022-10-17T06:20:53;11.23;;;8.52;;
54589;SDS011;40485;53.172;5.416;2022-10-17T06:23:18;12.20;;;10.13;;
54589;SDS011;40485;53.172;5.416;2022-10-17T06:25:44;14.95;;;9.27;;
54589;SDS011;40485;53.172;5.416;2022-10-17T06:28:10;11.10;;;7.50;;
54589;SDS011;40485;53.172;5.416;2022-10-17T06:30:37;14.13;;;8.95;;
54589;SDS011;40485;53.172;5.416;2022-10-17T06:33:04;11.43;;;8.43;;
54589;SDS011;40485;53.172;5.416;2022-10-17T06:35:29;11.38;;;8.48;;
54589;SDS011;40485;53.172;5.416;2022-10-17T06:37:55;22.23;;;9.52;;
54589;SDS011;40485;53.172;5.416;2022-10-17T06:40:21;15.05;;;8.48;;
54589;SDS011;40485;53.172;5.416;2022-10-17T06:42:46;13.52;;;9.57;;
54589;SDS011;40485;53.172;5.416;2022-10-17T06:45:12;13.32;;;9.43;;
54589;SDS011;40485;53.172;5.416;2022-10-17T06:47:38;13.30;;;8.68;;
54589;SDS011;40485;53.172;5.416;2022-10-17T06:50:04;12.75;;;9.90;;
54589;SDS011;40485;53.172;5.416;2022-10-17T06:52:29;12.63;;;9.07;;
54589;SDS011;40485;53.172;5.416;2022-10-17T06:54:55;10.98;;;7.32;;
54589;SDS011;40485;53.172;5.416;2022-10-17T06:57:21;12.93;;;8.82;;
54589;SDS011;40485;53.172;5.416;2022-10-17T06:59:46;12.00;;;8.70;;
54589;SDS011;40485;53.172;5.416;2022-10-17T07:02:12;11.00;;;8.82;;
54589;SDS011;40485;53.172;5.416;2022-10-17T07:04:38;14.40;;;9.18;;
54589;SDS011;40485;53.172;5.416;2022-10-17T07:07:03;10.68;;;8.60;;
54589;SDS011;40485;53.172;5.416;2022-10-17T07:09:29;14.38;;;8.38;;
54589;SDS011;40485;53.172;5.416;2022-10-17T07:11:56;12.30;;;8.68;;
54589;SDS011;40485;53.172;5.416;2022-10-17T07:14:22;11.45;;;7.95;;
54589;SDS011;40485;53.172;5.416;2022-10-17T07:16:55;12.40;;;8.63;;
54589;SDS011;40485;53.172;5.416;2022-10-17T07:19:24;10.15;;;7.70;;
54589;SDS011;40485;53.172;5.416;2022-10-17T07:21:51;10.90;;;8.52;;
54589;SDS011;40485;53.172;5.416;2022-10-17T07:24:17;10.82;;;7.90;;
54589;SDS011;40485;53.172;5.416;2022-10-17T07:26:43;11.10;;;7.20;;
54589;SDS011;40485;53.172;5.416;2022-10-17T07:29:09;12.45;;;8.38;;
54589;SDS011;40485;53.172;5.416;2022-10-17T07:31:34;10.60;;;7.63;;
54589;SDS011;40485;53.172;5.416;2022-10-17T07:34:00;12.32;;;8.25;;
54589;SDS011;40485;53.172;5.416;2022-10-17T07:36:26;10.05;;;7.57;;
54589;SDS011;40485;53.172;5.416;2022-10-17T07:38:52;15.68;;;7.80;;
54589;SDS011;40485;53.172;5.416;2022-10-17T07:41:17;10.52;;;7.82;;
54589;SDS011;40485;53.172;5.416;2022-10-17T07:43:43;14.10;;;8.40;;
54589;SDS011;40485;53.172;5.416;2022-10-17T07:46:09;11.77;;;7.20;;
54589;SDS011;40485;53.172;5.416;2022-10-17T07:48:36;10.55;;;7.53;;
54589;SDS011;40485;53.172;5.416;2022-10-17T07:51:07;11.02;;;6.65;;
54589;SDS011;40485;53.172;5.416;2022-10-17T07:53:34;10.60;;;5.72;;
54589;SDS011;40485;53.172;5.416;2022-10-17T07:56:07;14.43;;;7.18;;
54589;SDS011;40485;53.172;5.416;2022-10-17T07:58:35;10.48;;;7.13;;
54589;SDS011;40485;53.172;5.416;2022-10-17T08:01:05;15.63;;;8.18;;
54589;SDS011;40485;53.172;5.416;2022-10-17T08:03:34;12.18;;;8.27;;
54589;SDS011;40485;53.172;5.416;2022-10-17T08:06:00;13.90;;;7.38;;
54589;SDS011;40485;53.172;5.416;2022-10-17T08:08:27;12.75;;;7.30;;
54589;SDS011;40485;53.172;5.416;2022-10-17T08:10:54;10.93;;;7.70;;
54589;SDS011;40485;53.172;5.416;2022-10-17T08:13:20;11.93;;;6.10;;
54589;SDS011;40485;53.172;5.416;2022-10-17T08:15:46;8.90;;;6.25;;
54589;SDS011;40485;53.172;5.416;2022-10-17T08:18:13;11.60;;;7.50;;
54589;SDS011;40485;53.172;5.416;2022-10-17T08:20:40;10.70;;;7.55;;
54589;SDS011;40485;53.172;5.416;2022-10-17T08:23:06;12.77;;;8.10;;
54589;SDS011;40485;53.172;5.416;2022-10-17T08:25:32;14.60;;;7.55;;
54589;SDS011;40485;53.172;5.416;2022-10-17T08:27:57;10.43;;;6.47;;
54589;SDS011;40485;53.172;5.416;2022-10-17T08:30:23;10.20;;;7.53;;
54589;SDS011;40485;53.172;5.416;2022-10-17T08:32:49;8.45;;;5.55;;
54589;SDS011;40485;53.172;5.416;2022-10-17T08:35:14;14.82;;;6.60;;
54589;SDS011;40485;53.172;5.416;2022-10-17T08:37:40;9.02;;;5.85;;
54589;SDS011;40485;53.172;5.416;2022-10-17T08:40:06;13.68;;;7.80;;
54589;SDS011;40485;53.172;5.416;2022-10-17T08:48:00;13.65;;;6.82;;
54589;SDS011;40485;53.172;5.416;2022-10-17T08:53:10;10.68;;;7.97;;
54589;SDS011;40485;53.172;5.416;2022-10-17T08:55:45;11.90;;;5.28;;
54589;SDS011;40485;53.172;5.416;2022-10-17T08:58:28;8.77;;;6.22;;
54589;SDS011;40485;53.172;5.416;2022-10-17T09:06:17;14.07;;;8.70;;
54589;SDS011;40485;53.172;5.416;2022-10-17T09:09:10;11.52;;;8.95;;
54589;SDS011;40485;53.172;5.416;2022-10-17T09:17:33;10.18;;;6.55;;
54589;SDS011;40485;53.172;5.416;2022-10-17T09:20:40;15.27;;;7.85;;
54589;SDS011;40485;53.172;5.416;2022-10-17T09:23:12;17.88;;;9.38;;
54589;SDS011;40485;53.172;5.416;2022-10-17T09:25:43;24.77;;;9.55;;
54589;SDS011;40485;53.172;5.416;2022-10-17T09:28:13;20.40;;;8.95;;
54589;SDS011;40485;53.172;5.416;2022-10-17T09:30:46;15.48;;;8.50;;
54589;SDS011;40485;53.172;5.416;2022-10-17T09:33:16;18.40;;;8.57;;
54589;SDS011;40485;53.172;5.416;2022-10-17T09:35:44;15.40;;;7.63;;
54589;SDS011;40485;53.172;5.416;2022-10-17T09:42:53;18.67;;;8.52;;
54589;SDS011;40485;53.172;5.416;2022-10-17T09:45:20;27.88;;;8.88;;
54589;SDS011;40485;53.172;5.416;2022-10-17T09:47:59;20.90;;;9.18;;
54589;SDS011;40485;53.172;5.416;2022-10-17T09:50:35;23.00;;;10.20;;
54589;SDS011;40485;53.172;5.416;2022-10-17T09:55:46;23.58;;;8.35;;
54589;SDS011;40485;53.172;5.416;2022-10-17T09:58:13;20.33;;;8.82;;
54589;SDS011;40485;53.172;5.416;2022-10-17T10:00:40;16.95;;;9.93;;
54589;SDS011;40485;53.172;5.416;2022-10-17T10:03:18;18.23;;;10.27;;
54589;SDS011;40485;53.172;5.416;2022-10-17T10:05:59;20.42;;;10.63;;
54589;SDS011;40485;53.172;5.416;2022-10-17T10:08:48;18.88;;;10.70;;
54589;SDS011;40485;53.172;5.416;2022-10-17T10:11:18;17.80;;;10.80;;
54589;SDS011;40485;53.172;5.416;2022-10-17T10:13:48;23.60;;;9.95;;
54589;SDS011;40485;53.172;5.416;2022-10-17T10:16:19;14.50;;;9.00;;
54589;SDS011;40485;53.172;5.416;2022-10-17T10:18:48;14.90;;;9.35;;
54589;SDS011;40485;53.172;5.416;2022-10-17T10:21:15;19.40;;;10.40;;
54589;SDS011;40485;53.172;5.416;2022-10-17T10:26:38;17.20;;;10.48;;
54589;SDS011;40485;53.172;5.416;2022-10-17T10:29:20;18.97;;;10.30;;
54589;SDS011;40485;53.172;5.416;2022-10-17T10:37:28;14.50;;;7.30;;
54589;SDS011;40485;53.172;5.416;2022-10-17T10:40:02;19.88;;;9.80;;
54589;SDS011;40485;53.172;5.416;2022-10-17T10:42:30;19.45;;;9.90;;
54589;SDS011;40485;53.172;5.416;2022-10-17T10:45:23;16.98;;;10.10;;
54589;SDS011;40485;53.172;5.416;2022-10-17T10:50:49;13.68;;;8.57;;
54589;SDS011;40485;53.172;5.416;2022-10-17T10:55:57;17.20;;;9.40;;
54589;SDS011;40485;53.172;5.416;2022-10-17T11:01:04;11.40;;;7.32;;
54589;SDS011;40485;53.172;5.416;2022-10-17T11:03:51;13.52;;;8.68;;
54589;SDS011;40485;53.172;5.416;2022-10-17T11:06:27;13.32;;;8.75;;
54589;SDS011;40485;53.172;5.416;2022-10-17T11:11:39;13.70;;;8.30;;
54589;SDS011;40485;53.172;5.416;2022-10-17T11:22:15;9.80;;;6.88;;
54589;SDS011;40485;53.172;5.416;2022-10-17T11:24:52;11.23;;;6.97;;
54589;SDS011;40485;53.172;5.416;2022-10-17T11:27:39;11.55;;;5.75;;
54589;SDS011;40485;53.172;5.416;2022-10-17T11:30:05;16.95;;;7.57;;
54589;SDS011;40485;53.172;5.416;2022-10-17T11:32:35;9.68;;;6.32;;
54589;SDS011;40485;53.172;5.416;2022-10-17T11:35:13;9.63;;;6.43;;
54589;SDS011;40485;53.172;5.416;2022-10-17T11:38:17;10.88;;;6.53;;
54589;SDS011;40485;53.172;5.416;2022-10-17T11:40:50;7.03;;;5.03;;
54589;SDS011;40485;53.172;5.416;2022-10-17T11:43:26;10.93;;;6.90;;
54589;SDS011;40485;53.172;5.416;2022-10-17T11:51:23;14.88;;;6.50;;
54589;SDS011;40485;53.172;5.416;2022-10-17T11:56:27;14.27;;;7.07;;
54589;SDS011;40485;53.172;5.416;2022-10-17T11:59:32;10.30;;;7.03;;
54589;SDS011;40485;53.172;5.416;2022-10-17T12:02:08;11.30;;;6.32;;
54589;SDS011;40485;53.172;5.416;2022-10-17T12:09:52;9.57;;;5.65;;
54589;SDS011;40485;53.172;5.416;2022-10-17T12:12:38;9.82;;;5.20;;
54589;SDS011;40485;53.172;5.416;2022-10-17T12:17:45;13.40;;;4.93;;
54589;SDS011;40485;53.172;5.416;2022-10-17T12:22:47;13.48;;;4.75;;
54589;SDS011;40485;53.172;5.416;2022-10-17T12:27:45;10.98;;;4.03;;
54589;SDS011;40485;53.172;5.416;2022-10-17T12:30:23;11.45;;;3.58;;
54589;SDS011;40485;53.172;5.416;2022-10-17T12:35:30;11.50;;;3.85;;
54589;SDS011;40485;53.172;5.416;2022-10-17T12:37:59;9.48;;;3.28;;
54589;SDS011;40485;53.172;5.416;2022-10-17T12:45:57;8.25;;;3.13;;
54589;SDS011;40485;53.172;5.416;2022-10-17T12:51:12;5.38;;;2.90;;
54589;SDS011;40485;53.172;5.416;2022-10-17T12:56:48;9.30;;;2.70;;
54589;SDS011;40485;53.172;5.416;2022-10-17T12:59:21;8.73;;;2.60;;
54589;SDS011;40485;53.172;5.416;2022-10-17T13:01:50;14.43;;;2.85;;
54589;SDS011;40485;53.172;5.416;2022-10-17T13:04:18;8.73;;;2.90;;
54589;SDS011;40485;53.172;5.416;2022-10-17T13:06:46;4.88;;;2.67;;
54589;SDS011;40485;53.172;5.416;2022-10-17T13:12:00;7.80;;;3.00;;
54589;SDS011;40485;53.172;5.416;2022-10-17T13:14:28;9.65;;;2.20;;
54589;SDS011;40485;53.172;5.416;2022-10-17T13:16:59;10.90;;;2.95;;
54589;SDS011;40485;53.172;5.416;2022-10-17T13:19:30;6.88;;;2.92;;
54589;SDS011;40485;53.172;5.416;2022-10-17T13:22:09;9.35;;;3.53;;
54589;SDS011;40485;53.172;5.416;2022-10-17T13:25:06;5.75;;;2.40;;
54589;SDS011;40485;53.172;5.416;2022-10-17T13:27:40;10.43;;;3.03;;
54589;SDS011;40485;53.172;5.416;2022-10-17T13:30:22;8.30;;;3.28;;
54589;SDS011;40485;53.172;5.416;2022-10-17T13:32:54;13.60;;;3.20;;
54589;SDS011;40485;53.172;5.416;2022-10-17T13:35:24;10.30;;;3.45;;
54589;SDS011;40485;53.172;5.416;2022-10-17T13:37:54;8.63;;;3.03;;
54589;SDS011;40485;53.172;5.416;2022-10-17T13:40:24;8.52;;;2.75;;
54589;SDS011;40485;53.172;5.416;2022-10-17T13:42:52;14.13;;;3.55;;
54589;SDS011;40485;53.172;5.416;2022-10-17T13:45:28;14.45;;;3.78;;
54589;SDS011;40485;53.172;5.416;2022-10-17T13:47:57;11.45;;;3.90;;
54589;SDS011;40485;53.172;5.416;2022-10-17T13:50:30;12.07;;;3.95;;
54589;SDS011;40485;53.172;5.416;2022-10-17T13:55:36;8.13;;;3.20;;
54589;SDS011;40485;53.172;5.416;2022-10-17T13:58:09;14.73;;;3.53;;
54589;SDS011;40485;53.172;5.416;2022-10-17T14:00:42;7.93;;;3.15;;
54589;SDS011;40485;53.172;5.416;2022-10-17T14:03:09;7.10;;;2.65;;
54589;SDS011;40485;53.172;5.416;2022-10-17T14:05:35;11.30;;;2.83;;
54589;SDS011;40485;53.172;5.416;2022-10-17T14:08:23;12.30;;;3.28;;
54589;SDS011;40485;53.172;5.416;2022-10-17T14:10:49;10.35;;;3.25;;
54589;SDS011;40485;53.172;5.416;2022-10-17T14:13:22;13.73;;;3.03;;
54589;SDS011;40485;53.172;5.416;2022-10-17T14:15:50;12.27;;;3.38;;
54589;SDS011;40485;53.172;5.416;2022-10-17T14:18:18;9.55;;;2.58;;
54589;SDS011;40485;53.172;5.416;2022-10-17T14:20:46;8.95;;;2.38;;
54589;SDS011;40485;53.172;5.416;2022-10-17T14:26:12;9.82;;;2.45;;
54589;SDS011;40485;53.172;5.416;2022-10-17T14:28:39;10.80;;;3.40;;
54589;SDS011;40485;53.172;5.416;2022-10-17T14:31:17;8.85;;;3.25;;
54589;SDS011;40485;53.172;5.416;2022-10-17T14:33:44;11.43;;;2.50;;
54589;SDS011;40485;53.172;5.416;2022-10-17T14:36:12;7.03;;;2.50;;
54589;SDS011;40485;53.172;5.416;2022-10-17T14:38:42;5.47;;;2.20;;
54589;SDS011;40485;53.172;5.416;2022-10-17T14:41:13;4.32;;;2.20;;
54589;SDS011;40485;53.172;5.416;2022-10-17T14:43:50;8.95;;;2.83;;
54589;SDS011;40485;53.172;5.416;2022-10-17T14:46:22;10.05;;;2.60;;
54589;SDS011;40485;53.172;5.416;2022-10-17T14:48:51;8.00;;;3.15;;
54589;SDS011;40485;53.172;5.416;2022-10-17T14:51:19;8.02;;;2.72;;
54589;SDS011;40485;53.172;5.416;2022-10-17T14:56:41;6.55;;;1.70;;
54589;SDS011;40485;53.172;5.416;2022-10-17T14:59:12;6.43;;;1.85;;
54589;SDS011;40485;53.172;5.416;2022-10-17T15:01:41;11.63;;;2.25;;
54589;SDS011;40485;53.172;5.416;2022-10-17T15:04:07;4.95;;;1.60;;
54589;SDS011;40485;53.172;5.416;2022-10-17T15:06:34;5.47;;;1.80;;
54589;SDS011;40485;53.172;5.416;2022-10-17T15:09:00;6.15;;;1.92;;
54589;SDS011;40485;53.172;5.416;2022-10-17T15:11:26;5.28;;;2.00;;
54589;SDS011;40485;53.172;5.416;2022-10-17T15:13:52;9.35;;;2.40;;
54589;SDS011;40485;53.172;5.416;2022-10-17T15:16:22;12.70;;;2.80;;
54589;SDS011;40485;53.172;5.416;2022-10-17T15:18:49;8.00;;;1.98;;
54589;SDS011;40485;53.172;5.416;2022-10-17T15:21:17;12.60;;;2.88;;
54589;SDS011;40485;53.172;5.416;2022-10-17T15:23:44;9.00;;;2.20;;
54589;SDS011;40485;53.172;5.416;2022-10-17T15:26:20;10.93;;;2.33;;
54589;SDS011;40485;53.172;5.416;2022-10-17T15:28:49;10.38;;;2.15;;
54589;SDS011;40485;53.172;5.416;2022-10-17T15:31:16;7.70;;;2.45;;
54589;SDS011;40485;53.172;5.416;2022-10-17T15:33:44;7.53;;;2.40;;
54589;SDS011;40485;53.172;5.416;2022-10-17T15:36:20;7.03;;;2.33;;
54589;SDS011;40485;53.172;5.416;2022-10-17T15:38:49;8.50;;;2.42;;
54589;SDS011;40485;53.172;5.416;2022-10-17T15:41:17;12.55;;;2.85;;
54589;SDS011;40485;53.172;5.416;2022-10-17T15:43:43;7.95;;;2.55;;
54589;SDS011;40485;53.172;5.416;2022-10-17T15:46:11;11.65;;;2.80;;
54589;SDS011;40485;53.172;5.416;2022-10-17T15:48:39;6.95;;;2.47;;
54589;SDS011;40485;53.172;5.416;2022-10-17T15:51:05;7.53;;;2.10;;
54589;SDS011;40485;53.172;5.416;2022-10-17T15:53:31;9.75;;;2.55;;
54589;SDS011;40485;53.172;5.416;2022-10-17T15:55:57;11.05;;;2.88;;
54589;SDS011;40485;53.172;5.416;2022-10-17T15:58:23;7.43;;;1.90;;
54589;SDS011;40485;53.172;5.416;2022-10-17T16:00:52;6.32;;;1.92;;
54589;SDS011;40485;53.172;5.416;2022-10-17T16:03:18;6.95;;;1.98;;
54589;SDS011;40485;53.172;5.416;2022-10-17T16:05:43;9.48;;;1.95;;
54589;SDS011;40485;53.172;5.416;2022-10-17T16:08:09;8.77;;;2.30;;
54589;SDS011;40485;53.172;5.416;2022-10-17T16:10:35;8.48;;;2.10;;
54589;SDS011;40485;53.172;5.416;2022-10-17T16:13:03;10.48;;;2.15;;
54589;SDS011;40485;53.172;5.416;2022-10-17T16:15:29;8.48;;;2.45;;
54589;SDS011;40485;53.172;5.416;2022-10-17T16:17:55;10.85;;;2.20;;
54589;SDS011;40485;53.172;5.416;2022-10-17T16:20:22;10.98;;;1.65;;
54589;SDS011;40485;53.172;5.416;2022-10-17T16:22:48;11.90;;;2.70;;
54589;SDS011;40485;53.172;5.416;2022-10-17T16:25:19;7.10;;;1.70;;
54589;SDS011;40485;53.172;5.416;2022-10-17T16:27:47;9.13;;;2.05;;
54589;SDS011;40485;53.172;5.416;2022-10-17T16:30:15;10.68;;;2.40;;
54589;SDS011;40485;53.172;5.416;2022-10-17T16:32:41;10.45;;;2.45;;
54589;SDS011;40485;53.172;5.416;2022-10-17T16:35:07;11.55;;;2.58;;
54589;SDS011;40485;53.172;5.416;2022-10-17T16:37:35;9.57;;;2.40;;
54589;SDS011;40485;53.172;5.416;2022-10-17T16:40:01;9.45;;;2.28;;
54589;SDS011;40485;53.172;5.416;2022-10-17T16:42:28;10.07;;;2.55;;
54589;SDS011;40485;53.172;5.416;2022-10-17T16:44:54;8.45;;;2.25;;
54589;SDS011;40485;53.172;5.416;2022-10-17T16:47:19;12.40;;;2.60;;
54589;SDS011;40485;53.172;5.416;2022-10-17T16:49:45;10.05;;;2.15;;
54589;SDS011;40485;53.172;5.416;2022-10-17T16:52:10;8.10;;;2.05;;
54589;SDS011;40485;53.172;5.416;2022-10-17T16:54:36;12.32;;;2.65;;
54589;SDS011;40485;53.172;5.416;2022-10-17T16:57:02;11.30;;;2.65;;
54589;SDS011;40485;53.172;5.416;2022-10-17T16:59:29;11.90;;;2.33;;
54589;SDS011;40485;53.172;5.416;2022-10-17T17:01:54;13.38;;;2.95;;
54589;SDS011;40485;53.172;5.416;2022-10-17T17:04:20;16.33;;;3.28;;